Time;durP1;ratioP1;P1;durP2;ratioP2;P2;SDS_P1;SDS_P2;PMS_P1;PMS_P2;Temp;Humidity;BMP_temperature;BMP_pressure;BME280_temperature;BME280_humidity;BME280_pressure;Samples;Min_cycle;Max_cycle;Signal;HPM_P1;HPM_P2
2021/12/11 00:01:40;;;;;;;62.72;34.35;;;1.20;99.90;;;1.21;80.52;99941.88;4917219;29;20300;-74
2021/12/11 00:04:14;;;;;;;75.28;33.88;;;1.20;99.90;;;1.22;80.81;99952.34;4915673;29;20248;-73
2021/12/11 00:06:49;;;;;;;66.07;33.10;;;1.20;99.90;;;1.34;80.53;99960.03;4916707;29;20201;-72
2021/12/11 00:09:24;;;;;;;59.97;29.70;;;1.20;99.90;;;1.19;80.60;99958.00;4916760;29;20253;-73
2021/12/11 00:12:00;;;;;;;58.95;33.97;;;1.20;99.90;;;1.35;80.66;99967.88;4917022;29;20181;-73
2021/12/11 00:14:31;;;;;;;60.25;33.70;;;1.30;99.90;;;1.37;80.68;99965.00;4915391;29;20227;-73
2021/12/11 00:17:00;;;;;;;65.03;36.40;;;1.30;99.90;;;1.24;80.61;99970.84;4916983;29;20682;-73
2021/12/11 00:19:34;;;;;;;69.43;35.20;;;1.20;99.90;;;1.19;80.71;99968.66;4917122;29;20190;-71
2021/12/11 00:22:09;;;;;;;64.22;33.60;;;1.20;99.90;;;1.20;80.62;99969.50;4916887;29;20693;-74
2021/12/11 00:24:39;;;;;;;61.83;34.67;;;1.20;99.90;;;1.36;80.52;99968.66;4932211;29;20744;-73
2021/12/11 00:27:13;;;;;;;60.58;33.10;;;1.30;99.90;;;1.56;80.29;99980.69;4916931;29;20213;-73
2021/12/11 00:29:43;;;;;;;69.70;34.30;;;1.40;99.90;;;1.79;79.33;99968.38;4916443;29;20200;-72
2021/12/11 00:32:19;;;;;;;65.78;36.65;;;1.60;99.90;;;1.68;78.69;99980.19;4915820;29;20194;-74
2021/12/11 00:34:49;;;;;;;57.00;32.55;;;1.70;99.90;;;1.63;78.69;99985.19;4916184;29;20659;-73
2021/12/11 00:37:24;;;;;;;57.50;31.25;;;1.70;99.90;;;1.59;78.76;99988.38;4919583;29;20188;-72
2021/12/11 00:40:00;;;;;;;59.92;31.30;;;1.70;99.90;;;1.62;78.64;99993.34;4920440;29;20227;-74
2021/12/11 00:42:33;;;;;;;54.80;32.08;;;1.70;99.90;;;1.33;79.48;100001.00;4920905;29;20550;-73
2021/12/11 00:45:09;;;;;;;51.92;30.77;;;1.50;99.90;;;1.43;79.69;100007.84;4919008;29;20221;-73
2021/12/11 00:47:46;;;;;;;65.05;30.98;;;1.40;99.90;;;1.41;79.86;100012.50;4920521;29;20201;-72
2021/12/11 00:50:20;;;;;;;64.05;30.70;;;1.40;99.90;;;1.60;79.10;100016.69;4921462;29;20539;-74
2021/12/11 00:52:56;;;;;;;65.43;31.65;;;1.50;99.90;;;1.59;79.00;100025.69;4918397;29;20189;-72
2021/12/11 00:55:29;;;;;;;59.58;30.35;;;1.60;99.90;;;1.71;78.73;100027.03;4919890;29;20189;-71
2021/12/11 00:58:12;;;;;;;60.33;32.75;;;1.60;99.90;;;1.71;78.19;100033.19;4920311;29;20186;-71
2021/12/11 01:00:49;;;;;;;53.10;29.30;;;1.70;99.90;;;1.53;79.36;100034.34;4919476;29;20240;-72
2021/12/11 01:03:26;;;;;;;57.17;31.73;;;1.60;99.90;;;1.45;79.52;100045.84;4919030;29;20213;-73
2021/12/11 01:05:58;;;;;;;60.78;34.50;;;1.50;99.90;;;1.49;79.54;100041.84;4921188;29;20184;-73
2021/12/11 01:08:32;;;;;;;69.78;35.72;;;1.50;99.90;;;1.47;79.43;100051.00;4921343;29;20198;-72
2021/12/11 01:11:12;;;;;;;57.67;33.88;;;1.50;99.90;;;1.65;78.48;100057.84;4922597;29;20181;-74
2021/12/11 01:13:50;;;;;;;52.67;29.58;;;1.60;99.90;;;1.49;77.80;100065.84;4923383;29;20573;-75
2021/12/11 01:16:20;;;;;;;57.15;32.75;;;1.60;99.90;;;1.29;78.90;100065.31;4922680;29;20189;-71
2021/12/11 01:18:58;;;;;;;55.40;29.42;;;1.40;99.90;;;1.23;79.35;100071.28;4921287;29;20202;-72
2021/12/11 01:21:43;;;;;;;58.70;32.92;;;1.40;99.90;;;1.35;79.14;100070.97;4920800;29;20185;-73
2021/12/11 01:24:28;;;;;;;61.92;34.22;;;1.40;99.90;;;1.19;79.38;100069.94;4920537;29;20217;-71
2021/12/11 01:27:01;;;;;;;62.90;32.35;;;1.30;99.90;;;1.27;79.61;100071.78;4921230;29;20205;-72
2021/12/11 01:29:33;;;;;;;53.28;32.05;;;1.30;99.90;;;1.11;79.61;100072.59;4920146;29;20707;-73
2021/12/11 01:32:04;;;;;;;48.47;34.00;;;1.20;99.90;;;1.12;80.40;100068.91;4918084;29;20185;-72
2021/12/11 01:34:35;;;;;;;60.80;32.97;;;1.10;99.90;;;1.15;80.34;100075.75;4919771;29;20209;-72
2021/12/11 01:37:06;;;;;;;60.13;32.53;;;1.20;99.90;;;1.26;80.25;100083.44;4921027;29;20177;-73
2021/12/11 01:39:39;;;;;;;58.45;33.78;;;1.20;99.90;;;1.59;79.08;100089.69;4918710;29;20208;-72
2021/12/11 01:42:12;;;;;;;57.03;31.65;;;1.40;99.90;;;1.58;78.37;100093.34;4920140;29;20228;-72
2021/12/11 01:44:44;;;;;;;48.25;29.52;;;1.50;99.90;;;1.57;78.01;100094.34;4920175;29;20217;-73
2021/12/11 01:47:19;;;;;;;61.15;30.67;;;1.60;99.90;;;1.53;77.97;100099.19;4920220;29;20201;-72
2021/12/11 01:49:53;;;;;;;53.92;31.77;;;1.60;99.90;;;1.52;78.56;100102.00;4919298;29;20189;-71
2021/12/11 01:52:34;;;;;;;52.80;30.33;;;1.60;99.90;;;1.55;77.83;100109.69;4918736;29;20182;-72
2021/12/11 01:55:09;;;;;;;50.05;29.25;;;1.60;99.90;;;1.42;78.74;100106.63;4932693;29;20656;-72
2021/12/11 01:57:38;;;;;;;53.92;32.17;;;1.50;99.90;;;1.39;78.94;100107.81;4918431;29;20272;-72
2021/12/11 02:00:18;;;;;;;50.53;30.63;;;1.40;99.90;;;1.64;78.08;100116.72;4917737;29;20582;-72
2021/12/11 02:02:53;;;;;;;50.88;28.08;;;1.60;99.90;;;1.61;77.98;100117.03;4917105;29;20563;-72
2021/12/11 02:05:27;;;;;;;52.35;30.75;;;1.60;99.90;;;1.60;78.17;100115.34;4919140;29;20291;-74
2021/12/11 02:08:02;;;;;;;55.60;31.58;;;1.60;99.90;;;1.62;78.17;100116.03;4916588;29;20585;-74
2021/12/11 02:10:35;;;;;;;48.55;28.88;;;1.60;99.90;;;1.56;78.15;100116.66;4918216;29;20181;-73
2021/12/11 02:13:09;;;;;;;55.97;30.90;;;1.60;99.90;;;1.53;78.50;100114.34;4917864;29;20249;-72
2021/12/11 02:15:47;;;;;;;54.10;30.58;;;1.60;99.90;;;1.49;78.69;100121.84;4917711;29;20182;-72
2021/12/11 02:18:21;;;;;;;48.40;30.63;;;1.60;99.90;;;1.58;77.84;100125.34;4917879;29;20181;-71
2021/12/11 02:20:59;;;;;;;46.47;28.92;;;1.60;99.90;;;1.39;78.47;100122.97;4919295;29;20204;-74
2021/12/11 02:23:29;;;;;;;49.22;29.15;;;1.50;99.90;;;1.46;78.43;100131.97;4918228;29;20269;-72
2021/12/11 02:26:06;;;;;;;55.20;32.25;;;1.50;99.90;;;1.40;78.39;100138.81;4918143;29;20186;-72
2021/12/11 02:28:41;;;;;;;50.78;32.47;;;1.50;99.90;;;1.19;79.45;100139.22;4919245;29;20295;-72
2021/12/11 02:31:26;;;;;;;58.47;33.10;;;1.30;99.90;;;1.25;79.53;100153.75;4919061;29;20177;-72
2021/12/11 02:34:07;;;;;;;54.30;31.95;;;1.30;99.90;;;1.36;78.92;100147.25;4918100;29;20219;-72
2021/12/11 02:36:43;;;;;;;59.72;33.20;;;1.30;99.90;;;1.26;79.05;100145.56;4918354;29;20185;-73
2021/12/11 02:39:23;;;;;;;86.88;48.15;;;1.30;99.90;;;1.14;79.18;100146.88;4918114;29;20658;-72
2021/12/11 02:41:59;;;;;;;46.17;28.83;;;1.20;99.90;;;1.16;79.16;100144.84;4918138;29;20189;-73
2021/12/11 02:44:33;;;;;;;65.75;38.35;;;1.20;99.90;;;0.99;79.78;100148.47;4916614;29;20225;-72
2021/12/11 02:47:09;;;;;;;64.43;39.42;;;1.10;99.90;;;0.94;79.81;100137.44;4917237;29;20201;-70
2021/12/11 02:49:44;;;;;;;71.90;42.50;;;1.00;99.90;;;0.95;80.00;100148.94;4917321;29;20208;-73
2021/12/11 02:52:32;;;;;;;77.10;41.60;;;1.00;99.90;;;1.03;79.94;100155.13;4917239;29;20189;-73
2021/12/11 02:55:13;;;;;;;89.65;52.75;;;1.10;99.90;;;1.02;79.83;100158.78;4915556;29;20217;-72
2021/12/11 02:57:47;;;;;;;57.95;35.80;;;1.00;99.90;;;1.25;79.91;100159.91;4917159;29;20219;-70
2021/12/11 03:00:20;;;;;;;58.95;33.75;;;1.10;99.90;;;1.34;79.41;100160.78;4916216;29;20176;-74
2021/12/11 03:03:01;;;;;;;58.10;34.85;;;1.20;99.90;;;1.40;79.13;100175.31;4917066;29;20520;-72
2021/12/11 03:05:40;;;;;;;52.22;34.08;;;1.30;99.90;;;1.44;79.04;100166.81;4915634;29;20199;-72
2021/12/11 03:08:13;;;;;;;57.47;36.67;;;1.40;99.90;;;1.50;78.48;100173.34;4916859;29;20247;-71
2021/12/11 03:10:48;;;;;;;57.30;34.88;;;1.50;99.90;;;1.55;78.32;100166.50;4916873;29;20178;-72
2021/12/11 03:13:16;;;;;;;63.08;36.72;;;1.50;99.90;;;1.61;78.13;100176.53;4915431;29;20197;-72
2021/12/11 03:15:45;;;;;;;60.08;35.30;;;1.60;99.90;;;1.58;78.07;100184.03;4917231;29;20234;-72
2021/12/11 03:18:14;;;;;;;67.93;37.92;;;1.60;99.90;;;1.49;78.50;100177.84;4916977;29;20229;-73
2021/12/11 03:20:45;;;;;;;58.30;37.33;;;1.60;99.90;;;1.48;78.49;100180.66;4916933;29;20185;-72
2021/12/11 03:23:16;;;;;;;54.53;34.47;;;1.60;99.90;;;1.39;78.63;100186.94;4917213;29;20244;-73
2021/12/11 03:25:46;;;;;;;61.65;36.47;;;1.40;99.90;;;1.27;79.47;100194.38;4915862;29;20325;-73
2021/12/11 03:28:17;;;;;;;66.40;36.83;;;1.30;99.90;;;1.39;79.07;100192.28;4916125;29;20190;-73
2021/12/11 03:30:56;;;;;;;52.92;31.98;;;1.40;99.90;;;1.33;78.83;100203.56;4917977;29;20182;-73
2021/12/11 03:33:29;;;;;;;61.63;40.47;;;1.40;99.90;;;1.34;79.55;100199.94;4922444;29;20291;-74
2021/12/11 03:35:58;;;;;;;67.97;36.45;;;1.40;99.90;;;1.27;79.04;100205.03;4921714;29;20194;-73
2021/12/11 03:38:29;;;;;;;59.75;36.10;;;1.40;99.90;;;1.13;79.78;100209.16;4918149;29;20181;-72
2021/12/11 03:40:59;;;;;;;54.45;32.13;;;1.30;99.90;;;1.14;79.71;100221.47;4916635;29;20193;-71
2021/12/11 03:43:31;;;;;;;57.10;33.25;;;1.30;99.90;;;0.83;80.81;100225.59;4917790;29;20611;-72
2021/12/11 03:46:06;;;;;;;63.55;28.67;;;1.00;99.90;;;0.78;80.42;100225.22;4919054;29;20675;-72
2021/12/11 03:48:42;;;;;;;47.80;26.70;;;1.00;99.90;;;0.68;80.61;100227.16;4922641;29;20192;-72
2021/12/11 03:51:16;;;;;;;54.90;29.27;;;0.80;99.90;;;0.62;80.47;100225.13;4923777;29;20719;-73
2021/12/11 03:53:45;;;;;;;53.38;27.70;;;0.80;99.90;;;0.55;81.19;100235.53;4922526;29;20252;-73
2021/12/11 03:56:17;;;;;;;53.97;29.02;;;0.80;99.90;;;0.74;81.00;100239.84;4919056;29;20590;-74
2021/12/11 03:58:51;;;;;;;55.75;31.10;;;0.80;99.90;;;0.95;80.61;100243.00;4932954;29;20201;-72
2021/12/11 04:01:26;;;;;;;52.38;31.25;;;0.90;99.90;;;1.04;79.73;100242.06;4918927;29;20170;-71
2021/12/11 04:04:02;;;;;;;54.92;29.77;;;1.00;99.90;;;0.82;80.29;100237.25;4932918;29;20217;-73
2021/12/11 04:06:33;;;;;;;65.65;28.95;;;0.90;99.90;;;0.80;80.63;100248.06;4919396;29;20252;-73
2021/12/11 04:09:07;;;;;;;53.78;28.77;;;0.90;99.90;;;0.72;81.04;100250.69;4934258;29;20213;-72
2021/12/11 04:11:38;;;;;;;58.22;29.40;;;0.90;99.90;;;0.93;80.59;100255.63;4927788;29;20176;-71
2021/12/11 04:14:11;;;;;;;59.65;33.45;;;1.00;99.90;;;0.77;81.07;100261.69;4942222;29;20790;-70
2021/12/11 04:16:41;;;;;;;59.03;33.15;;;0.90;99.90;;;0.68;81.18;100267.09;4927395;29;20193;-72
2021/12/11 04:19:11;;;;;;;65.93;32.33;;;0.90;99.90;;;0.90;81.58;100266.63;4927762;29;20205;-74
2021/12/11 04:21:42;;;;;;;72.65;36.50;;;0.90;99.90;;;0.94;81.33;100275.97;4927799;29;20235;-73
2021/12/11 04:24:14;;;;;;;68.07;33.92;;;0.90;99.90;;;0.77;81.63;100282.16;4925042;29;20221;-73
2021/12/11 04:26:45;;;;;;;77.18;33.13;;;0.90;99.90;;;0.87;81.28;100288.25;4919500;29;20257;-71
2021/12/11 04:29:14;;;;;;;63.22;31.70;;;0.90;99.90;;;1.10;80.90;100293.91;4915682;29;20490;-72
2021/12/11 04:31:46;;;;;;;66.07;31.13;;;1.00;99.90;;;1.03;80.88;100292.84;4915703;29;20198;-71
2021/12/11 04:34:18;;;;;;;102.22;33.58;;;1.00;99.90;;;0.93;81.10;100303.59;4915923;29;20213;-72
2021/12/11 04:36:53;;;;;;;56.88;30.77;;;1.00;99.90;;;0.93;81.23;100302.75;4914521;29;20331;-72
2021/12/11 04:39:24;;;;;;;76.57;35.60;;;1.00;99.90;;;1.18;80.75;100308.13;4916102;29;20177;-72
2021/12/11 04:42:00;;;;;;;61.17;31.02;;;1.10;99.90;;;1.14;80.67;100312.09;4915909;29;20174;-72
2021/12/11 04:44:36;;;;;;;64.00;32.63;;;1.10;99.90;;;1.13;80.65;100315.75;4916092;29;20335;-72
2021/12/11 04:47:14;;;;;;;73.80;36.38;;;1.10;99.90;;;1.17;80.99;100317.09;4915730;29;20208;-74
2021/12/11 04:49:50;;;;;;;72.38;33.30;;;1.10;99.90;;;1.19;80.93;100331.13;4915537;29;20217;-72
2021/12/11 04:52:32;;;;;;;70.75;34.55;;;1.20;99.90;;;1.20;80.12;100331.94;4915713;29;20264;-72
2021/12/11 04:55:16;;;;;;;64.35;32.50;;;1.20;99.90;;;1.11;81.08;100333.72;4930203;29;20320;-74
2021/12/11 04:58:04;;;;;;;75.65;34.20;;;1.10;99.90;;;1.24;80.58;100347.47;4915969;29;20173;-73
2021/12/11 05:00:49;;;;;;;63.53;31.98;;;1.20;99.90;;;1.17;80.53;100354.41;4916021;29;20247;-75
2021/12/11 05:06:34;;;;;;;70.05;32.08;;;1.20;99.90;;;1.34;80.45;100351.88;4916408;29;20174;-74
2021/12/11 05:09:22;;;;;;;62.55;31.88;;;1.30;99.90;;;1.13;80.40;100358.38;4914909;29;20197;-73
2021/12/11 05:12:09;;;;;;;67.95;32.13;;;1.20;99.90;;;1.05;81.21;100358.31;4931256;29;20194;-75
2021/12/11 05:14:41;;;;;;;58.25;28.42;;;1.10;99.90;;;1.23;80.19;100366.28;4915674;29;20240;-73
2021/12/11 05:17:11;;;;;;;58.42;29.85;;;1.20;99.90;;;1.12;80.68;100378.00;4916474;29;20237;-72
2021/12/11 05:19:41;;;;;;;65.13;30.38;;;1.20;99.90;;;1.07;80.53;100379.47;4916606;29;20546;-71
2021/12/11 05:22:11;;;;;;;58.83;29.67;;;1.20;99.90;;;1.09;80.92;100383.66;4915395;29;20417;-73
2021/12/11 05:24:44;;;;;;;56.72;28.58;;;1.10;99.90;;;1.17;80.88;100386.38;4918578;29;20228;-72
2021/12/11 05:27:13;;;;;;;57.72;28.30;;;1.10;99.90;;;1.25;80.18;100399.81;4934643;29;20245;-71
2021/12/11 05:29:43;;;;;;;67.72;30.77;;;1.20;99.90;;;1.16;80.54;100395.38;4920495;29;20217;-71
2021/12/11 05:32:16;;;;;;;64.60;32.83;;;1.20;99.90;;;1.30;80.13;100402.00;4921142;29;20178;-72
2021/12/11 05:34:45;;;;;;;61.67;29.27;;;1.30;99.90;;;1.31;79.73;100403.66;4921216;29;20209;-73
2021/12/11 05:37:14;;;;;;;58.95;27.90;;;1.30;99.90;;;1.36;79.76;100409.34;4920267;29;20195;-73
2021/12/11 05:39:43;;;;;;;62.17;29.58;;;1.30;99.90;;;1.18;79.89;100404.06;4921613;29;20574;-73
2021/12/11 05:42:11;;;;;;;54.50;25.38;;;1.30;99.90;;;1.22;80.33;100415.25;4922855;29;20181;-72
2021/12/11 05:44:43;;;;;;;61.30;29.48;;;1.20;99.90;;;1.25;80.49;100415.78;4922523;29;20224;-73
2021/12/11 05:47:12;;;;;;;53.22;26.05;;;1.20;99.90;;;1.29;80.13;100427.81;4918310;29;20210;-70
2021/12/11 05:49:43;;;;;;;65.30;31.52;;;1.20;99.90;;;1.18;80.81;100428.03;4934361;29;20269;-71
2021/12/11 05:52:13;;;;;;;61.80;31.13;;;1.20;99.90;;;1.26;79.96;100437.91;4919951;29;20182;-73
2021/12/11 05:54:45;;;;;;;56.45;28.17;;;1.30;99.90;;;1.24;80.35;100435.44;4934288;29;20248;-72
2021/12/11 05:57:21;;;;;;;60.65;29.38;;;1.30;99.90;;;1.25;80.27;100445.09;4917796;29;20198;-71
2021/12/11 05:59:52;;;;;;;55.63;29.60;;;1.30;99.90;;;1.24;80.40;100434.59;4918366;29;20368;-70
2021/12/11 06:02:26;;;;;;;66.95;30.65;;;1.30;99.90;;;1.22;80.14;100445.41;4918127;29;20201;-72
2021/12/11 06:04:59;;;;;;;57.58;26.38;;;1.30;99.90;;;1.31;79.98;100443.63;4919323;29;20497;-72
2021/12/11 06:07:31;;;;;;;56.55;27.95;;;1.30;99.90;;;1.18;80.54;100452.03;4919498;29;20294;-72
2021/12/11 06:10:08;;;;;;;62.03;29.33;;;1.20;99.90;;;1.22;80.54;100453.41;4917407;29;20305;-73
2021/12/11 06:12:36;;;;;;;62.80;29.38;;;1.20;99.90;;;1.25;80.07;100452.25;4917721;29;20227;-73
2021/12/11 06:15:08;;;;;;;57.78;27.35;;;1.30;99.90;;;1.26;80.19;100465.41;4918452;29;20702;-73
2021/12/11 06:17:41;;;;;;;56.75;26.27;;;1.30;99.90;;;1.23;80.01;100467.56;4918733;29;20181;-76
2021/12/11 06:20:14;;;;;;;55.83;27.45;;;1.30;99.90;;;1.19;80.15;100475.03;4918179;29;20566;-72
2021/12/11 06:22:43;;;;;;;56.53;27.88;;;1.30;99.90;;;1.11;80.36;100474.13;4918587;29;20273;-74
2021/12/11 06:25:16;;;;;;;57.28;28.40;;;1.20;99.90;;;1.23;80.18;100476.41;4917764;29;20634;-74
2021/12/11 06:27:45;;;;;;;52.70;26.80;;;1.30;99.90;;;1.20;80.50;100481.19;4916593;29;20204;-72
2021/12/11 06:30:17;;;;;;;61.13;28.98;;;1.20;99.90;;;1.22;80.50;100479.19;4917627;29;20205;-72
2021/12/11 06:32:48;;;;;;;60.63;30.50;;;1.20;99.90;;;1.09;80.91;100476.94;4932371;29;20189;-73
2021/12/11 06:35:24;;;;;;;59.70;27.20;;;1.10;99.90;;;1.33;80.61;100475.47;4932292;29;20305;-71
2021/12/11 06:37:53;;;;;;;60.25;26.60;;;1.20;99.90;;;1.31;80.30;100483.63;4916452;29;20634;-73
2021/12/11 06:40:21;;;;;;;62.95;29.83;;;1.30;99.90;;;1.41;80.31;100483.53;4915952;29;20197;-73
2021/12/11 06:42:51;;;;;;;62.35;32.05;;;1.40;99.90;;;1.51;79.61;100497.63;4917504;29;20193;-72
2021/12/11 06:45:23;;;;;;;55.40;29.23;;;1.40;99.90;;;1.41;79.51;100499.53;4916578;29;20227;-74
2021/12/11 06:47:52;;;;;;;64.47;30.48;;;1.40;99.90;;;1.55;79.05;100502.50;4917912;29;20532;-71
2021/12/11 06:50:22;;;;;;;60.80;29.27;;;1.50;99.90;;;1.51;79.80;100506.47;4917557;29;20212;-72
2021/12/11 06:52:52;;;;;;;66.30;31.60;;;1.50;99.90;;;1.36;80.02;100513.31;4917959;29;20196;-72
2021/12/11 06:55:21;;;;;;;58.90;27.48;;;1.50;99.90;;;1.36;80.28;100509.81;4917376;29;20237;-72
2021/12/11 06:57:51;;;;;;;60.55;27.75;;;1.40;99.90;;;1.59;79.49;100511.91;4916963;29;20276;-75
2021/12/11 07:00:22;;;;;;;55.25;29.15;;;1.50;99.90;;;1.71;78.82;100521.31;4918445;29;20174;-72
2021/12/11 07:02:51;;;;;;;67.72;30.77;;;1.70;99.90;;;1.62;78.65;100532.91;4916634;29;20194;-74
2021/12/11 07:05:19;;;;;;;63.15;31.70;;;1.70;99.90;;;1.60;78.89;100548.22;4915451;29;20280;-71
2021/12/11 07:07:48;;;;;;;62.65;31.30;;;1.70;99.90;;;1.58;78.83;100552.03;4917013;29;20555;-72
2021/12/11 07:10:19;;;;;;;66.72;33.13;;;1.70;99.90;;;1.42;79.56;100557.22;4917613;29;20178;-72
2021/12/11 07:12:49;;;;;;;51.30;25.80;;;1.50;99.90;;;1.46;79.14;100555.91;4917883;29;20182;-71
2021/12/11 07:15:20;;;;;;;59.72;28.92;;;1.50;99.90;;;1.36;79.71;100563.13;4917693;29;20300;-70
2021/12/11 07:17:49;;;;;;;67.72;29.88;;;1.40;99.90;;;1.46;80.27;100564.75;4919096;29;20178;-72
2021/12/11 07:20:17;;;;;;;62.85;27.88;;;1.50;99.90;;;1.45;79.42;100572.94;4918726;29;20220;-72
2021/12/11 07:22:46;;;;;;;63.95;30.80;;;1.50;99.90;;;1.46;80.33;100582.56;4917731;29;20213;-74
2021/12/11 07:25:21;;;;;;;63.92;28.23;;;1.60;99.90;;;1.35;79.78;100596.16;4919974;29;20771;-71
2021/12/11 07:27:50;;;;;;;61.40;29.08;;;1.50;99.90;;;1.33;79.62;100595.44;4918459;29;20629;-72
2021/12/11 07:30:21;;;;;;;61.25;28.90;;;1.40;99.90;;;1.38;79.74;100609.16;4917087;29;20182;-71
2021/12/11 07:32:52;;;;;;;55.42;25.98;;;1.40;99.90;;;1.36;80.03;100608.47;4916252;29;20194;-71
2021/12/11 07:35:21;;;;;;;58.90;26.50;;;1.40;99.90;;;1.49;79.69;100608.97;4917491;29;20304;-73
2021/12/11 07:37:50;;;;;;;63.05;28.73;;;1.50;99.90;;;1.47;79.47;100617.09;4916334;29;20631;-73
2021/12/11 07:40:23;;;;;;;72.90;30.13;;;1.50;99.90;;;1.45;79.53;100628.91;4916137;29;20197;-72
2021/12/11 07:42:52;;;;;;;57.28;28.00;;;1.50;99.90;;;1.38;79.91;100627.81;4932213;29;20272;-73
2021/12/11 07:45:25;;;;;;;67.32;31.42;;;1.40;99.90;;;1.46;79.42;100633.25;4931100;29;20225;-73
2021/12/11 07:47:54;;;;;;;62.38;30.58;;;1.50;99.90;;;1.44;79.40;100637.91;4916247;29;20241;-75
2021/12/11 07:50:24;;;;;;;74.93;31.75;;;1.50;99.90;;;1.40;79.25;100645.38;4917827;29;20260;-72
2021/12/11 07:52:53;;;;;;;57.97;29.65;;;1.50;99.90;;;1.46;79.15;100649.25;4915451;29;20214;-71
2021/12/11 07:55:23;;;;;;;57.22;28.17;;;1.50;99.90;;;1.38;79.08;100651.81;4915787;29;20221;-73
2021/12/11 07:57:53;;;;;;;62.67;29.60;;;1.40;99.90;;;1.47;79.27;100656.25;4917148;29;20186;-72
2021/12/11 08:00:37;;;;;;;51.90;25.15;;;1.40;99.90;;;1.55;78.48;100657.19;4916886;29;20178;-73
2021/12/11 08:03:08;;;;;;;57.42;28.85;;;1.60;99.90;;;1.50;78.42;100664.78;4931198;29;20205;-73
2021/12/11 08:05:38;;;;;;;50.97;26.98;;;1.50;99.90;;;1.41;78.17;100662.19;4915830;29;20241;-72
2021/12/11 08:08:09;;;;;;;53.60;26.08;;;1.50;99.90;;;1.52;78.48;100661.97;4916174;29;20542;-71
2021/12/11 08:10:43;;;;;;;51.85;27.70;;;1.50;99.90;;;1.48;78.12;100663.28;4916905;29;20214;-73
2021/12/11 08:13:13;;;;;;;52.38;27.85;;;1.50;99.90;;;1.53;78.21;100674.34;4931598;29;20197;-72
2021/12/11 08:15:44;;;;;;;55.17;29.27;;;1.60;99.90;;;1.45;78.36;100680.44;4916842;29;20189;-72
2021/12/11 08:18:15;;;;;;;56.63;29.52;;;1.50;99.90;;;1.46;78.47;100690.06;4916512;29;20189;-72
2021/12/11 08:20:46;;;;;;;60.75;29.45;;;1.50;99.90;;;1.43;78.40;100693.06;4916806;29;20237;-72
2021/12/11 08:23:17;;;;;;;58.42;29.15;;;1.50;99.90;;;1.37;78.79;100698.13;4916140;29;20237;-72
2021/12/11 08:25:51;;;;;;;51.17;26.70;;;1.40;99.90;;;1.31;78.73;100699.56;4916321;29;20204;-72
2021/12/11 08:28:25;;;;;;;58.78;29.75;;;1.40;99.90;;;1.35;78.41;100705.44;4933063;29;20228;-73
2021/12/11 08:30:59;;;;;;;62.08;29.70;;;1.40;99.90;;;1.13;78.68;100703.97;4918846;29;20208;-73
2021/12/11 08:33:28;;;;;;;55.10;29.02;;;1.20;99.90;;;1.33;78.57;100699.41;4920671;29;20224;-74
2021/12/11 08:35:57;;;;;;;60.67;28.40;;;1.30;99.90;;;1.03;79.14;100714.69;4916486;29;20209;-72
2021/12/11 08:38:25;;;;;;;56.35;26.55;;;1.20;99.90;;;1.04;79.18;100716.38;4918831;29;20202;-73
2021/12/11 08:41:00;;;;;;;57.28;29.27;;;1.20;99.90;;;1.19;78.71;100714.91;4932557;29;20189;-72
2021/12/11 08:43:29;;;;;;;42.17;22.67;;;1.20;99.90;;;1.12;78.62;100719.13;4918137;29;20220;-73
2021/12/11 08:46:09;;;;;;;45.92;24.05;;;1.10;99.90;;;1.22;78.47;100730.59;4920348;29;20197;-74
2021/12/11 08:48:42;;;;;;;47.03;24.90;;;1.20;99.90;;;1.09;78.42;100730.09;4920280;29;20185;-74
2021/12/11 08:51:19;;;;;;;51.83;27.00;;;1.10;99.90;;;1.16;78.22;100735.69;4920154;29;20269;-72
2021/12/11 08:53:50;;;;;;;48.40;25.63;;;1.20;99.90;;;1.11;78.09;100737.97;4933993;29;20316;-74
2021/12/11 08:56:20;;;;;;;48.58;24.40;;;1.20;99.90;;;0.87;78.30;100736.59;4919302;29;20264;-74
2021/12/11 08:58:56;;;;;;;43.63;21.23;;;1.00;99.90;;;0.85;78.61;100749.22;4920765;29;20209;-71
2021/12/11 09:01:35;;;;;;;44.10;23.35;;;1.00;99.90;;;0.63;78.59;100754.84;4923869;29;20197;-74
2021/12/11 09:04:29;;;;;;;38.25;21.00;;;0.80;99.90;;;0.73;79.12;100761.00;4932931;29;20218;-73
2021/12/11 09:07:05;;;;;;;42.78;22.88;;;0.80;99.90;;;0.84;78.81;100765.34;4919083;29;20193;-73
2021/12/11 09:09:54;;;;;;;40.92;21.23;;;0.80;99.90;;;0.91;78.58;100765.63;4934975;29;20735;-72
2021/12/11 09:12:36;;;;;;;38.47;21.05;;;0.90;99.90;;;0.91;78.05;100774.47;4919896;29;20228;-73
2021/12/11 09:18:33;;;;;;;34.88;19.38;;;1.00;99.90;;;0.83;78.59;100788.47;4918341;29;20198;-71
2021/12/11 09:21:25;;;;;;;32.72;20.33;;;0.80;99.90;;;0.98;78.23;100786.22;4919228;29;20201;-72
2021/12/11 09:24:04;;;;;;;40.50;20.75;;;0.90;99.90;;;1.18;78.20;100782.53;4917634;29;20316;-72
2021/12/11 09:26:38;;;;;;;36.20;19.95;;;1.00;99.90;;;1.16;77.61;100795.13;4918473;29;20686;-75
2021/12/11 09:29:15;;;;;;;35.58;19.17;;;1.20;99.90;;;0.95;77.82;100797.16;4934447;29;20189;-72
2021/12/11 09:31:57;;;;;;;33.53;19.02;;;1.10;99.90;;;0.62;78.09;100794.97;4919663;29;20235;-71
2021/12/11 09:34:39;;;;;;;34.20;19.20;;;0.90;99.90;;;0.87;78.05;100805.84;4920519;29;20217;-73
2021/12/11 09:37:10;;;;;;;36.33;20.83;;;0.90;99.90;;;0.75;78.40;100800.84;4935102;29;20208;-71
2021/12/11 09:39:46;;;;;;;40.72;22.15;;;0.80;99.90;;;0.87;78.47;100797.88;4920173;29;20186;-71
2021/12/11 09:42:14;;;;;;;35.80;20.88;;;0.80;99.90;;;0.95;77.94;100802.50;4920291;29;20548;-73
2021/12/11 09:44:50;;;;;;;33.33;20.75;;;0.90;99.90;;;1.04;77.93;100804.31;4920228;29;20234;-72
2021/12/11 09:47:28;;;;;;;29.05;19.15;;;1.00;99.90;;;0.96;78.35;100801.53;4921777;29;20280;-74
2021/12/11 09:50:05;;;;;;;32.33;18.65;;;1.00;99.90;;;1.13;77.74;100814.09;4923977;29;20228;-70
2021/12/11 09:52:34;;;;;;;39.42;19.15;;;1.10;99.90;;;1.31;77.38;100815.03;4942515;29;20221;-74
2021/12/11 09:55:09;;;;;;;31.00;19.77;;;1.10;99.90;;;1.06;76.81;100818.34;4928248;29;20205;-72
2021/12/11 09:57:43;;;;;;;32.60;18.70;;;1.00;99.90;;;0.91;77.17;100822.41;4927639;29;20554;-75
2021/12/11 10:00:21;;;;;;;27.92;18.23;;;0.90;99.90;;;1.21;76.37;100824.06;4928850;29;20198;-73
2021/12/11 10:02:50;;;;;;;31.95;19.45;;;1.00;99.90;;;1.37;75.89;100836.75;4930169;29;20727;-71
2021/12/11 10:05:30;;;;;;;35.42;18.80;;;1.30;99.90;;;1.22;76.17;100842.56;4930734;29;20217;-73
2021/12/11 10:08:26;;;;;;;25.80;17.05;;;1.20;99.90;;;1.22;75.83;100842.56;4934773;29;20200;-74
2021/12/11 10:11:09;;;;;;;30.73;16.60;;;1.30;99.90;;;1.02;76.96;100851.56;4933922;29;20190;-73
2021/12/11 10:13:43;;;;;;;30.27;18.42;;;1.00;99.90;;;1.19;76.04;100842.00;4919876;29;20221;-71
2021/12/11 10:16:15;;;;;;;29.77;18.00;;;1.20;99.90;;;1.11;76.70;100848.06;4934942;29;20599;-74
2021/12/11 10:18:45;;;;;;;27.15;17.85;;;1.00;99.90;;;1.40;76.12;100849.84;4934673;29;20197;-72
2021/12/11 10:21:19;;;;;;;35.88;21.42;;;1.30;99.90;;;1.20;76.01;100854.34;4918192;29;20193;-74
2021/12/11 10:23:53;;;;;;;30.67;22.45;;;1.20;99.90;;;1.36;75.64;100854.59;4933811;29;20220;-72
2021/12/11 10:26:28;;;;;;;34.97;20.75;;;1.30;99.90;;;1.41;75.22;100857.66;4919334;29;20542;-72
2021/12/11 10:29:03;;;;;;;37.25;21.40;;;1.40;99.90;;;1.53;75.55;100866.34;4917563;29;20185;-72
2021/12/11 10:31:38;;;;;;;38.33;20.75;;;1.50;99.90;;;1.50;75.06;100855.97;4917899;29;20193;-70
2021/12/11 10:34:11;;;;;;;28.52;19.15;;;1.50;99.90;;;1.32;75.49;100855.88;4933588;29;20615;-72
2021/12/11 10:36:46;;;;;;;32.50;18.85;;;1.40;99.90;;;1.33;76.17;100854.88;4919116;29;20212;-71
2021/12/11 10:39:17;;;;;;;32.78;19.83;;;1.30;99.90;;;1.51;75.41;100863.81;4920006;29;20173;-72
2021/12/11 10:41:47;;;;;;;32.10;20.35;;;1.50;99.90;;;1.45;75.55;100866.25;4934895;29;20257;-71
2021/12/11 10:44:26;;;;;;;32.38;21.48;;;1.40;99.90;;;1.66;75.40;100872.19;4921284;29;20257;-74
2021/12/11 10:47:00;;;;;;;33.83;19.13;;;1.50;99.90;;;1.37;75.75;100879.44;4921972;29;20193;-72